Tampa, FL

14:39 EDT le 01 septembre 2014 (GMT -0400)
Radio Station W9DKC | Change Station
CLOSE
Current Station
Stations météorologiques personnelles
Location: Tampa, FL
Altitude: 34 ft
Stations météo à proximité

Alt. 34 ft 27.98 °N, 82.41 °W | Updated 4 minutes ago

Scattered Clouds
Nuages épars
94.9 ° F
Paraît 109 ° F
N
0.0
Vent Variable Vent de SSE
Gusts 2.0 mph

Aujourd'hui
Haut(e) -- | Bas -- ° F
--% Risque de précip.
Hier
Haut(e) -- | Bas -- ° F
Precip. -- pouce
7:08 AM 7:50 PM
Lune montante, 43% visible
Pression 30.10 pouce
Visibilité 10.0 Miles terrestres
Nuages Nuages épars 4800 ft
indice de chaleur 109 ° F
Point de rosée 76 ° F
Humidité 55%
Précipitations 0.00 pouce
Profondeur de la couche neigeuse Non disponible.
UV 11 sur 12
Pollen 5.20 sur 12
Qualité de l'air Non disponible.
Flu Activity Non disponible.
METAR KTPA 011753Z 20004KT 10SM SCT048 33/22 A3010 RMK AO2 SLP191 T03280217 10333 20256 58012

More Conditions Fewer Conditions

Pression 30.10 pouce
Visibilité 10.0 Miles terrestres
Nuages Nuages épars 4800 ft
indice de chaleur 109 ° F
Point de rosée 76 ° F
Humidité 55%
Précipitations 0.00 pouce
Profondeur de la couche neigeuse Non disponible.
UV 11 sur 12
Pollen 5.20 sur 12
Qualité de l'air Non disponible.
Flu Activity Non disponible.
METAR KTPA 011753Z 20004KT 10SM SCT048 33/22 A3010 RMK AO2 SLP191 T03280217 10333 20256 58012

More Conditions Fewer Conditions

10-Day Weather Forecast

Almanac

Astronomie

Sep. 01, 2014 Lever Coucher
Temps réel 07:08 EDT 19:50 EDT
Crépuscule civil 06:44 EDT 20:14 EDT
Crépuscule nautique 06:16 EDT 20:42 EDT
Crépuscule astronomique 05:47 EDT 21:11 EDT
Lune 13:19 EDT Pas de coucher de lune
Durée de lumière visible 13h 29m
Longueur du jour
12h 42m
Tomorrow will be 1m 36s shorter.
Lune montante, 43% of the Moon is Illuminated
Aujourd'hui
Lune montante
Sep 2
Premier quartier
Sep 8
Pleine lune
Sep 15
Dernier quartier
Sep 24
Nouveau

Extrêmes aujourd'hui

State Highs State Lows

Community

WunderPhotos

Upload Photos

1,749,350 Photos téléchargées !

Nearby

Épaisseur de neige

Station Depth Altitude
Pas de nouvelles chutes de neige

Activité sismique

Ville Distance Mag. Time & Date
No recent earthquake activity has been reported nearby.
Minimum magnitude displayed is 2.5.

Températures des eaux côtières

Lieu Température
St Petersburg, FL 91.0 ° F
Old Port Tampa, FL 88.0 ° F
McKay Bay Entrance, FL 89.1 ° F

Stations météo à proximité